메인 페이지
METAR-TAF:

METAR-TAF

공항 :

스톡홀름 알란다 국제공항

스톡홀름 알란다, 스웨덴

위도: 59-39N, 경도: 017-57E, 고도: 38m

현재 날씨관측

예보는 42분 전, 11:20시(UTC)에 발표되었습니다.
7kt
온도 9°C
습도 93%
기압 1021 hPa
시정 10km 이상
고도 4800ft 상공 구름 많음

METAR: ESSA 201120Z 28007KT 9999 BKN048 09/08 Q1021 NOSIG

시각: 14:02 (12:02 UTC)

예보

예보는 32분 전, 11:30시(UTC)에 발표되었습니다.
예보 대상 시간: 20일 12시부터 21일 12시까지 (UTC)
6kt
시정 10km 이상
1500m 미만 상공 구름 및 적란운 없음
확률 40%
20일 20시부터 21일 06시까지 (UTC)
시정: 0800m
고도 200ft 상공
안개
확률 40%
21일 06시부터 21일 08시까지 (UTC)
고도 500ft 상공 구름 많음
확률 40%
21일 08시부터 21일 12시까지 (UTC)
고도 1000ft 상공 구름 많음

TAF: ESSA 201130Z 2012/2112 26006KT CAVOK PROB40 2020/2106 0800 FG VV002 PROB40 2106/2108 BKN005 PROB40 2108/2112 BKN010

4,000개 이상의 공항 관측 자료 및 예보 (METAR 및 TAF 보고).

지도상에서 검색 가능한 기상관측소가 노란 점과 빨간 점으로 표시되어 있습니다.

기상관측소 명을 보려면 표시 위로 마우스를 이동하세요.

날씨 관측과 예보를 보려면 클릭하세요.

지도 변경 : 확대하려면 엑스 표시가 있는 녹색 버튼, 축소하려면 빼기 표시가 있는 녹색 버튼, 다음 페이지의 지도를 보려면 녹색 화살표를 클릭하세요.


METAR-TAF: